Annette Island, AK

5:34 PM AKDT on April 19, 2015 (GMT -0800)
Metlakatla | | Change Station
CLOSE
Current Station
Airport
Location: Metlakatla,
Elevation: 0 ft
Nearby Weather Stations

Elev 0 ft 55.13 °N, 131.58 °W | Updated 18 minutes ago

Overcast
Overcast
46 °F
Feels Like 42 °F
N
9
Wind Variable Wind from East

Today
High -- | Low -- °F
--% Chance of Precip.
Yesterday
High -- | Low -- °F
Precip. -- in
5:33 AM 7:58 PM
New Moon, 2% visible
Pressure 30.17 in
Visibility 8.0 miles
Clouds Overcast 2200 ft
Windchill 42 °F
Dew Point 41 °F
Humidity 81%
Rainfall 0.09 in
Snow Depth Not available.
UV 1 out of 12
Pollen Not available.
Air Quality Not available.
Flu Activity Sporadic
METAR PAMM 200116Z AUTO 09008KT 8SM OVC022 08/05 A3017 RMK AO1

More Conditions Fewer Conditions

Pressure 30.17 in
Visibility 8.0 miles
Clouds Overcast 2200 ft
Windchill 42 °F
Dew Point 41 °F
Humidity 81%
Rainfall 0.09 in
Snow Depth Not available.
UV 1 out of 12
Pollen Not available.
Air Quality Not available.
Flu Activity Sporadic
METAR PAMM 200116Z AUTO 09008KT 8SM OVC022 08/05 A3017 RMK AO1

More Conditions Fewer Conditions

10-Day Weather Forecast

Almanac

Astronomy

Apr. 19, 2015 Rise Set
Actual Time
Civil Twilight
Nautical Twilight
Astronomical Twilight
Moon
Length of Visible Light
Length of Day
Tomorrow will be .
, % of the Moon is Illuminated

Today's Extremes

State Highs State Lows

Community

WunderPhotos

Upload Photos

1,815,083 photos uploaded!

WunderBlogs® & News

Nearby

Air Quality

  Air Quality AQ Index Pollutant
Not available.

Snow Depth

Station Depth Elevation

Earthquake Activity

City Distance Mag. Time & Date
Minimum magnitude displayed is 2.5.

Coastal Water Temperatures

Place Temperature

Stations

Nearby Weather Stations

Station Location Temp. Windchill Dew Point Humidity Wind Precip. Elev Updated Type